sensor_id;sensor_type;location;lat;lon;timestamp;P1;durP1;ratioP1;P2;durP2;ratioP2
8247;SDS011;4164;49.844;8.830;2022-09-03T00:00:48;1.40;;;1.30;;
8247;SDS011;4164;49.844;8.830;2022-09-03T00:03:19;1.70;;;1.20;;
8247;SDS011;4164;49.844;8.830;2022-09-03T00:08:47;1.50;;;1.40;;
8247;SDS011;4164;49.844;8.830;2022-09-03T00:13:56;4.00;;;1.20;;
8247;SDS011;4164;49.844;8.830;2022-09-03T00:16:30;2.13;;;1.33;;
8247;SDS011;4164;49.844;8.830;2022-09-03T00:19:08;1.20;;;1.10;;
8247;SDS011;4164;49.844;8.830;2022-09-03T00:21:44;1.23;;;1.10;;
8247;SDS011;4164;49.844;8.830;2022-09-03T00:24:13;3.23;;;1.40;;
8247;SDS011;4164;49.844;8.830;2022-09-03T00:26:46;3.53;;;1.47;;
8247;SDS011;4164;49.844;8.830;2022-09-03T00:29:35;1.83;;;1.10;;
8247;SDS011;4164;49.844;8.830;2022-09-03T00:32:06;1.27;;;1.17;;
8247;SDS011;4164;49.844;8.830;2022-09-03T00:34:39;2.30;;;1.00;;
8247;SDS011;4164;49.844;8.830;2022-09-03T00:37:09;1.77;;;1.20;;
8247;SDS011;4164;49.844;8.830;2022-09-03T00:39:35;2.90;;;1.27;;
8247;SDS011;4164;49.844;8.830;2022-09-03T00:47:48;1.50;;;1.40;;
8247;SDS011;4164;49.844;8.830;2022-09-03T00:53:27;2.57;;;1.33;;
8247;SDS011;4164;49.844;8.830;2022-09-03T00:56:19;3.47;;;1.40;;
8247;SDS011;4164;49.844;8.830;2022-09-03T00:59:12;2.50;;;1.27;;
8247;SDS011;4164;49.844;8.830;2022-09-03T01:02:11;2.40;;;1.30;;
8247;SDS011;4164;49.844;8.830;2022-09-03T01:04:58;4.43;;;1.17;;
8247;SDS011;4164;49.844;8.830;2022-09-03T01:07:44;4.53;;;1.30;;
8247;SDS011;4164;49.844;8.830;2022-09-03T01:13:23;3.27;;;1.30;;
8247;SDS011;4164;49.844;8.830;2022-09-03T01:16:27;1.90;;;1.40;;
8247;SDS011;4164;49.844;8.830;2022-09-03T01:27:10;4.20;;;1.40;;
8247;SDS011;4164;49.844;8.830;2022-09-03T01:29:54;1.57;;;1.23;;
8247;SDS011;4164;49.844;8.830;2022-09-03T01:32:42;1.50;;;1.33;;
8247;SDS011;4164;49.844;8.830;2022-09-03T01:35:30;2.60;;;1.40;;
8247;SDS011;4164;49.844;8.830;2022-09-03T01:46:40;1.47;;;1.20;;
8247;SDS011;4164;49.844;8.830;2022-09-03T01:49:23;2.47;;;1.57;;
8247;SDS011;4164;49.844;8.830;2022-09-03T01:52:05;1.23;;;1.20;;
8247;SDS011;4164;49.844;8.830;2022-09-03T01:57:47;2.23;;;1.60;;
8247;SDS011;4164;49.844;8.830;2022-09-03T02:00:15;3.13;;;1.30;;
8247;SDS011;4164;49.844;8.830;2022-09-03T02:02:44;2.07;;;1.30;;
8247;SDS011;4164;49.844;8.830;2022-09-03T02:10:25;1.43;;;1.23;;
8247;SDS011;4164;49.844;8.830;2022-09-03T02:12:55;1.93;;;1.30;;
8247;SDS011;4164;49.844;8.830;2022-09-03T02:15:24;1.17;;;1.13;;
8247;SDS011;4164;49.844;8.830;2022-09-03T02:17:52;2.53;;;1.17;;
8247;SDS011;4164;49.844;8.830;2022-09-03T02:20:22;1.20;;;1.20;;
8247;SDS011;4164;49.844;8.830;2022-09-03T02:22:50;1.87;;;1.40;;
8247;SDS011;4164;49.844;8.830;2022-09-03T02:25:18;1.83;;;1.20;;
8247;SDS011;4164;49.844;8.830;2022-09-03T02:27:46;1.00;;;1.00;;
8247;SDS011;4164;49.844;8.830;2022-09-03T02:30:14;4.07;;;1.20;;
8247;SDS011;4164;49.844;8.830;2022-09-03T02:32:41;4.97;;;1.33;;
8247;SDS011;4164;49.844;8.830;2022-09-03T02:35:07;1.80;;;1.40;;
8247;SDS011;4164;49.844;8.830;2022-09-03T02:37:36;1.17;;;1.17;;
8247;SDS011;4164;49.844;8.830;2022-09-03T02:40:02;2.27;;;1.30;;
8247;SDS011;4164;49.844;8.830;2022-09-03T02:42:32;1.77;;;1.43;;
8247;SDS011;4164;49.844;8.830;2022-09-03T02:44:59;1.40;;;1.13;;
8247;SDS011;4164;49.844;8.830;2022-09-03T02:47:35;1.50;;;1.20;;
8247;SDS011;4164;49.844;8.830;2022-09-03T02:50:04;3.17;;;1.67;;
8247;SDS011;4164;49.844;8.830;2022-09-03T02:52:30;1.43;;;1.33;;
8247;SDS011;4164;49.844;8.830;2022-09-03T02:54:56;1.50;;;1.40;;
8247;SDS011;4164;49.844;8.830;2022-09-03T02:57:21;2.67;;;1.07;;
8247;SDS011;4164;49.844;8.830;2022-09-03T02:59:47;1.43;;;1.33;;
8247;SDS011;4164;49.844;8.830;2022-09-03T03:02:12;0.97;;;0.97;;
8247;SDS011;4164;49.844;8.830;2022-09-03T03:04:38;1.50;;;1.40;;
8247;SDS011;4164;49.844;8.830;2022-09-03T03:07:05;1.40;;;1.30;;
8247;SDS011;4164;49.844;8.830;2022-09-03T03:09:31;1.70;;;1.47;;
8247;SDS011;4164;49.844;8.830;2022-09-03T03:11:56;2.60;;;1.67;;
8247;SDS011;4164;49.844;8.830;2022-09-03T03:14:22;1.37;;;1.27;;
8247;SDS011;4164;49.844;8.830;2022-09-03T03:16:48;1.37;;;1.27;;
8247;SDS011;4164;49.844;8.830;2022-09-03T03:19:14;1.73;;;1.30;;
8247;SDS011;4164;49.844;8.830;2022-09-03T03:21:40;1.40;;;1.30;;
8247;SDS011;4164;49.844;8.830;2022-09-03T03:24:05;1.20;;;1.10;;
8247;SDS011;4164;49.844;8.830;2022-09-03T03:26:31;4.80;;;1.33;;
8247;SDS011;4164;49.844;8.830;2022-09-03T03:28:58;1.40;;;1.30;;
8247;SDS011;4164;49.844;8.830;2022-09-03T03:31:25;3.63;;;1.20;;
8247;SDS011;4164;49.844;8.830;2022-09-03T03:33:51;2.00;;;1.30;;
8247;SDS011;4164;49.844;8.830;2022-09-03T03:36:19;4.03;;;1.33;;
8247;SDS011;4164;49.844;8.830;2022-09-03T03:38:46;1.87;;;1.43;;
8247;SDS011;4164;49.844;8.830;2022-09-03T03:43:39;1.40;;;1.20;;
8247;SDS011;4164;49.844;8.830;2022-09-03T03:46:05;2.20;;;1.33;;
8247;SDS011;4164;49.844;8.830;2022-09-03T03:48:31;1.73;;;1.30;;
8247;SDS011;4164;49.844;8.830;2022-09-03T03:51:00;3.13;;;1.20;;
8247;SDS011;4164;49.844;8.830;2022-09-03T03:53:29;2.73;;;1.40;;
8247;SDS011;4164;49.844;8.830;2022-09-03T03:55:56;1.93;;;1.30;;
8247;SDS011;4164;49.844;8.830;2022-09-03T03:58:23;4.17;;;1.40;;
8247;SDS011;4164;49.844;8.830;2022-09-03T04:00:50;1.40;;;1.30;;
8247;SDS011;4164;49.844;8.830;2022-09-03T04:03:16;3.40;;;1.47;;
8247;SDS011;4164;49.844;8.830;2022-09-03T04:05:42;4.30;;;1.30;;
8247;SDS011;4164;49.844;8.830;2022-09-03T04:08:07;1.93;;;1.60;;
8247;SDS011;4164;49.844;8.830;2022-09-03T04:10:33;1.53;;;1.40;;
8247;SDS011;4164;49.844;8.830;2022-09-03T04:13:00;2.70;;;1.37;;
8247;SDS011;4164;49.844;8.830;2022-09-03T04:15:26;3.63;;;1.43;;
8247;SDS011;4164;49.844;8.830;2022-09-03T04:17:55;2.37;;;1.53;;
8247;SDS011;4164;49.844;8.830;2022-09-03T04:20:20;3.33;;;1.27;;
8247;SDS011;4164;49.844;8.830;2022-09-03T04:22:46;2.30;;;1.37;;
8247;SDS011;4164;49.844;8.830;2022-09-03T04:25:11;1.60;;;1.23;;
8247;SDS011;4164;49.844;8.830;2022-09-03T04:27:37;3.90;;;1.40;;
8247;SDS011;4164;49.844;8.830;2022-09-03T04:30:02;4.83;;;1.50;;
8247;SDS011;4164;49.844;8.830;2022-09-03T04:32:29;1.40;;;1.30;;
8247;SDS011;4164;49.844;8.830;2022-09-03T04:35:13;1.73;;;1.40;;
8247;SDS011;4164;49.844;8.830;2022-09-03T04:37:39;3.90;;;1.50;;
8247;SDS011;4164;49.844;8.830;2022-09-03T04:40:05;2.60;;;1.43;;
8247;SDS011;4164;49.844;8.830;2022-09-03T04:42:31;2.57;;;1.60;;
8247;SDS011;4164;49.844;8.830;2022-09-03T04:44:57;1.60;;;1.50;;
8247;SDS011;4164;49.844;8.830;2022-09-03T04:47:23;2.40;;;1.40;;
8247;SDS011;4164;49.844;8.830;2022-09-03T04:49:48;1.50;;;1.40;;
8247;SDS011;4164;49.844;8.830;2022-09-03T04:52:14;1.47;;;1.37;;
8247;SDS011;4164;49.844;8.830;2022-09-03T04:54:39;3.07;;;1.50;;
8247;SDS011;4164;49.844;8.830;2022-09-03T04:57:05;2.07;;;1.60;;
8247;SDS011;4164;49.844;8.830;2022-09-03T04:59:30;3.23;;;1.40;;
8247;SDS011;4164;49.844;8.830;2022-09-03T05:01:56;2.97;;;1.43;;
8247;SDS011;4164;49.844;8.830;2022-09-03T05:04:21;1.60;;;1.40;;
8247;SDS011;4164;49.844;8.830;2022-09-03T05:06:47;1.70;;;1.60;;
8247;SDS011;4164;49.844;8.830;2022-09-03T05:09:12;1.73;;;1.20;;
8247;SDS011;4164;49.844;8.830;2022-09-03T05:11:38;1.33;;;1.23;;
8247;SDS011;4164;49.844;8.830;2022-09-03T05:14:03;1.40;;;1.30;;
8247;SDS011;4164;49.844;8.830;2022-09-03T05:16:30;1.60;;;1.50;;
8247;SDS011;4164;49.844;8.830;2022-09-03T05:18:56;4.20;;;1.37;;
8247;SDS011;4164;49.844;8.830;2022-09-03T05:21:25;1.83;;;1.60;;
8247;SDS011;4164;49.844;8.830;2022-09-03T05:23:52;1.83;;;1.67;;
8247;SDS011;4164;49.844;8.830;2022-09-03T05:26:19;1.17;;;1.17;;
8247;SDS011;4164;49.844;8.830;2022-09-03T05:28:57;2.20;;;1.40;;
8247;SDS011;4164;49.844;8.830;2022-09-03T05:31:25;1.77;;;1.67;;
8247;SDS011;4164;49.844;8.830;2022-09-03T05:33:53;3.60;;;1.53;;
8247;SDS011;4164;49.844;8.830;2022-09-03T05:36:23;4.67;;;1.70;;
8247;SDS011;4164;49.844;8.830;2022-09-03T05:38:49;1.90;;;1.50;;
8247;SDS011;4164;49.844;8.830;2022-09-03T05:41:18;1.63;;;1.47;;
8247;SDS011;4164;49.844;8.830;2022-09-03T05:43:46;3.03;;;1.50;;
8247;SDS011;4164;49.844;8.830;2022-09-03T05:46:19;1.93;;;1.40;;
8247;SDS011;4164;49.844;8.830;2022-09-03T05:48:44;2.17;;;1.33;;
8247;SDS011;4164;49.844;8.830;2022-09-03T05:51:11;1.50;;;1.40;;
8247;SDS011;4164;49.844;8.830;2022-09-03T05:53:40;3.97;;;1.47;;
8247;SDS011;4164;49.844;8.830;2022-09-03T05:56:07;1.70;;;1.60;;
8247;SDS011;4164;49.844;8.830;2022-09-03T05:58:41;1.40;;;1.30;;
8247;SDS011;4164;49.844;8.830;2022-09-03T06:01:12;1.53;;;1.43;;
8247;SDS011;4164;49.844;8.830;2022-09-03T06:03:40;3.10;;;1.37;;
8247;SDS011;4164;49.844;8.830;2022-09-03T06:06:07;1.63;;;1.50;;
8247;SDS011;4164;49.844;8.830;2022-09-03T06:08:33;1.60;;;1.50;;
8247;SDS011;4164;49.844;8.830;2022-09-03T06:11:00;2.03;;;1.83;;
8247;SDS011;4164;49.844;8.830;2022-09-03T06:13:28;3.53;;;1.40;;
8247;SDS011;4164;49.844;8.830;2022-09-03T06:16:01;1.57;;;1.37;;
8247;SDS011;4164;49.844;8.830;2022-09-03T06:18:29;4.60;;;1.70;;
8247;SDS011;4164;49.844;8.830;2022-09-03T06:20:55;2.60;;;1.60;;
8247;SDS011;4164;49.844;8.830;2022-09-03T06:23:22;1.90;;;1.70;;
8247;SDS011;4164;49.844;8.830;2022-09-03T06:26:08;1.70;;;1.60;;
8247;SDS011;4164;49.844;8.830;2022-09-03T06:28:38;2.13;;;1.40;;
8247;SDS011;4164;49.844;8.830;2022-09-03T06:31:08;3.57;;;1.80;;
8247;SDS011;4164;49.844;8.830;2022-09-03T06:33:35;3.47;;;1.50;;
8247;SDS011;4164;49.844;8.830;2022-09-03T06:36:03;2.33;;;1.70;;
8247;SDS011;4164;49.844;8.830;2022-09-03T06:38:31;2.77;;;1.70;;
8247;SDS011;4164;49.844;8.830;2022-09-03T06:41:02;2.03;;;1.87;;
8247;SDS011;4164;49.844;8.830;2022-09-03T06:43:31;6.80;;;2.03;;
8247;SDS011;4164;49.844;8.830;2022-09-03T06:45:59;5.57;;;2.07;;
8247;SDS011;4164;49.844;8.830;2022-09-03T06:48:27;4.17;;;1.80;;
8247;SDS011;4164;49.844;8.830;2022-09-03T06:51:04;2.60;;;2.13;;
8247;SDS011;4164;49.844;8.830;2022-09-03T06:53:35;4.70;;;2.00;;
8247;SDS011;4164;49.844;8.830;2022-09-03T06:56:07;2.80;;;1.80;;
8247;SDS011;4164;49.844;8.830;2022-09-03T06:58:38;2.97;;;1.70;;
8247;SDS011;4164;49.844;8.830;2022-09-03T07:01:12;2.93;;;2.00;;
8247;SDS011;4164;49.844;8.830;2022-09-03T07:03:40;2.70;;;1.80;;
8247;SDS011;4164;49.844;8.830;2022-09-03T07:06:17;10.43;;;2.37;;
8247;SDS011;4164;49.844;8.830;2022-09-03T07:08:43;2.13;;;1.97;;
8247;SDS011;4164;49.844;8.830;2022-09-03T07:11:11;2.30;;;2.10;;
8247;SDS011;4164;49.844;8.830;2022-09-03T07:13:39;3.37;;;2.00;;
8247;SDS011;4164;49.844;8.830;2022-09-03T07:16:08;3.13;;;1.87;;
8247;SDS011;4164;49.844;8.830;2022-09-03T07:18:36;2.37;;;2.00;;
8247;SDS011;4164;49.844;8.830;2022-09-03T07:21:03;2.77;;;1.77;;
8247;SDS011;4164;49.844;8.830;2022-09-03T07:23:31;2.57;;;2.00;;
8247;SDS011;4164;49.844;8.830;2022-09-03T07:25:58;3.17;;;1.80;;
8247;SDS011;4164;49.844;8.830;2022-09-03T07:28:26;3.60;;;1.80;;
8247;SDS011;4164;49.844;8.830;2022-09-03T07:30:53;2.07;;;1.87;;
8247;SDS011;4164;49.844;8.830;2022-09-03T07:33:24;1.70;;;1.60;;
8247;SDS011;4164;49.844;8.830;2022-09-03T07:35:52;2.67;;;1.70;;
8247;SDS011;4164;49.844;8.830;2022-09-03T07:38:17;2.37;;;1.67;;
8247;SDS011;4164;49.844;8.830;2022-09-03T07:40:48;5.43;;;2.00;;
8247;SDS011;4164;49.844;8.830;2022-09-03T07:43:21;2.20;;;1.70;;
8247;SDS011;4164;49.844;8.830;2022-09-03T07:45:49;5.00;;;1.93;;
8247;SDS011;4164;49.844;8.830;2022-09-03T07:48:14;1.93;;;1.83;;
8247;SDS011;4164;49.844;8.830;2022-09-03T07:50:41;1.70;;;1.60;;
8247;SDS011;4164;49.844;8.830;2022-09-03T07:53:07;5.27;;;1.90;;
8247;SDS011;4164;49.844;8.830;2022-09-03T07:55:32;2.27;;;2.03;;
8247;SDS011;4164;49.844;8.830;2022-09-03T07:57:58;3.23;;;1.87;;
8247;SDS011;4164;49.844;8.830;2022-09-03T08:00:24;2.90;;;2.20;;
8247;SDS011;4164;49.844;8.830;2022-09-03T08:02:52;2.27;;;1.90;;
8247;SDS011;4164;49.844;8.830;2022-09-03T08:05:18;1.97;;;1.70;;
8247;SDS011;4164;49.844;8.830;2022-09-03T08:07:45;2.00;;;1.80;;
8247;SDS011;4164;49.844;8.830;2022-09-03T08:10:11;2.97;;;2.17;;
8247;SDS011;4164;49.844;8.830;2022-09-03T08:12:37;2.17;;;1.87;;
8247;SDS011;4164;49.844;8.830;2022-09-03T08:15:03;2.93;;;2.10;;
8247;SDS011;4164;49.844;8.830;2022-09-03T08:17:29;2.50;;;1.93;;
8247;SDS011;4164;49.844;8.830;2022-09-03T08:19:54;2.67;;;1.90;;
8247;SDS011;4164;49.844;8.830;2022-09-03T08:22:21;2.83;;;1.90;;
8247;SDS011;4164;49.844;8.830;2022-09-03T08:24:49;2.30;;;2.07;;
8247;SDS011;4164;49.844;8.830;2022-09-03T08:27:15;3.43;;;1.93;;
8247;SDS011;4164;49.844;8.830;2022-09-03T08:29:40;2.00;;;1.80;;
8247;SDS011;4164;49.844;8.830;2022-09-03T08:32:06;3.30;;;1.80;;
8247;SDS011;4164;49.844;8.830;2022-09-03T08:34:31;5.07;;;2.20;;
8247;SDS011;4164;49.844;8.830;2022-09-03T08:36:57;2.43;;;2.10;;
8247;SDS011;4164;49.844;8.830;2022-09-03T08:39:25;2.00;;;1.90;;
8247;SDS011;4164;49.844;8.830;2022-09-03T08:54:57;2.43;;;2.10;;
8247;SDS011;4164;49.844;8.830;2022-09-03T08:57:27;3.57;;;2.17;;
8247;SDS011;4164;49.844;8.830;2022-09-03T08:59:56;3.03;;;1.80;;
8247;SDS011;4164;49.844;8.830;2022-09-03T09:05:20;2.97;;;2.03;;
8247;SDS011;4164;49.844;8.830;2022-09-03T09:07:59;7.57;;;2.60;;
8247;SDS011;4164;49.844;8.830;2022-09-03T09:11:01;1.77;;;1.67;;
8247;SDS011;4164;49.844;8.830;2022-09-03T09:16:28;2.33;;;1.70;;
8247;SDS011;4164;49.844;8.830;2022-09-03T09:21:56;2.47;;;1.83;;
8247;SDS011;4164;49.844;8.830;2022-09-03T09:24:26;3.57;;;2.27;;
8247;SDS011;4164;49.844;8.830;2022-09-03T09:27:03;2.83;;;2.20;;
8247;SDS011;4164;49.844;8.830;2022-09-03T09:29:34;2.30;;;2.10;;
8247;SDS011;4164;49.844;8.830;2022-09-03T09:32:02;3.33;;;2.53;;
8247;SDS011;4164;49.844;8.830;2022-09-03T09:34:34;2.50;;;2.30;;
8247;SDS011;4164;49.844;8.830;2022-09-03T09:37:02;2.50;;;2.27;;
8247;SDS011;4164;49.844;8.830;2022-09-03T09:39:31;2.50;;;2.30;;
8247;SDS011;4164;49.844;8.830;2022-09-03T09:41:57;5.27;;;2.50;;
8247;SDS011;4164;49.844;8.830;2022-09-03T09:44:25;5.90;;;2.60;;
8247;SDS011;4164;49.844;8.830;2022-09-03T09:47:00;3.77;;;2.33;;
8247;SDS011;4164;49.844;8.830;2022-09-03T09:49:36;3.00;;;2.23;;
8247;SDS011;4164;49.844;8.830;2022-09-03T09:52:15;3.37;;;2.40;;
8247;SDS011;4164;49.844;8.830;2022-09-03T09:54:42;3.23;;;2.03;;
8247;SDS011;4164;49.844;8.830;2022-09-03T09:57:14;3.83;;;2.67;;
8247;SDS011;4164;49.844;8.830;2022-09-03T09:59:44;2.67;;;2.47;;
8247;SDS011;4164;49.844;8.830;2022-09-03T10:02:11;4.20;;;2.47;;
8247;SDS011;4164;49.844;8.830;2022-09-03T10:04:39;2.40;;;2.20;;
8247;SDS011;4164;49.844;8.830;2022-09-03T10:07:27;2.50;;;2.30;;
8247;SDS011;4164;49.844;8.830;2022-09-03T10:10:03;2.40;;;2.20;;
8247;SDS011;4164;49.844;8.830;2022-09-03T10:21:00;2.70;;;2.50;;
8247;SDS011;4164;49.844;8.830;2022-09-03T10:23:32;2.60;;;2.40;;
8247;SDS011;4164;49.844;8.830;2022-09-03T10:26:05;3.10;;;2.40;;
8247;SDS011;4164;49.844;8.830;2022-09-03T10:28:38;5.03;;;2.80;;
8247;SDS011;4164;49.844;8.830;2022-09-03T10:31:12;2.50;;;2.30;;
8247;SDS011;4164;49.844;8.830;2022-09-03T10:39:10;3.97;;;2.87;;
8247;SDS011;4164;49.844;8.830;2022-09-03T10:49:35;3.70;;;2.97;;
8247;SDS011;4164;49.844;8.830;2022-09-03T10:58:12;4.90;;;2.30;;
8247;SDS011;4164;49.844;8.830;2022-09-03T11:00:57;2.53;;;2.33;;
8247;SDS011;4164;49.844;8.830;2022-09-03T11:03:35;2.43;;;2.23;;
8247;SDS011;4164;49.844;8.830;2022-09-03T11:11:26;2.83;;;2.60;;
8247;SDS011;4164;49.844;8.830;2022-09-03T11:14:27;2.80;;;2.60;;
8247;SDS011;4164;49.844;8.830;2022-09-03T11:16:59;4.10;;;2.80;;
8247;SDS011;4164;49.844;8.830;2022-09-03T11:19:35;2.83;;;2.63;;
8247;SDS011;4164;49.844;8.830;2022-09-03T11:22:11;3.00;;;2.70;;
8247;SDS011;4164;49.844;8.830;2022-09-03T11:24:40;5.13;;;2.53;;
8247;SDS011;4164;49.844;8.830;2022-09-03T11:30:02;4.63;;;2.70;;
8247;SDS011;4164;49.844;8.830;2022-09-03T11:32:53;4.23;;;2.77;;
8247;SDS011;4164;49.844;8.830;2022-09-03T11:40:35;2.90;;;2.60;;
8247;SDS011;4164;49.844;8.830;2022-09-03T11:46:02;3.20;;;2.70;;
8247;SDS011;4164;49.844;8.830;2022-09-03T11:51:02;2.60;;;2.40;;
8247;SDS011;4164;49.844;8.830;2022-09-03T11:53:34;3.00;;;2.70;;
8247;SDS011;4164;49.844;8.830;2022-09-03T11:56:11;3.00;;;2.80;;
8247;SDS011;4164;49.844;8.830;2022-09-03T11:58:42;3.10;;;2.80;;
8247;SDS011;4164;49.844;8.830;2022-09-03T12:01:09;4.03;;;2.77;;
8247;SDS011;4164;49.844;8.830;2022-09-03T12:17:50;2.40;;;2.30;;
8247;SDS011;4164;49.844;8.830;2022-09-03T12:20:39;5.17;;;2.73;;
8247;SDS011;4164;49.844;8.830;2022-09-03T12:23:05;3.40;;;2.40;;
8247;SDS011;4164;49.844;8.830;2022-09-03T12:25:32;2.60;;;2.40;;
8247;SDS011;4164;49.844;8.830;2022-09-03T12:27:58;3.10;;;2.63;;
8247;SDS011;4164;49.844;8.830;2022-09-03T12:30:29;3.83;;;2.70;;
8247;SDS011;4164;49.844;8.830;2022-09-03T12:33:04;2.77;;;2.50;;
8247;SDS011;4164;49.844;8.830;2022-09-03T12:35:31;2.83;;;2.50;;
8247;SDS011;4164;49.844;8.830;2022-09-03T12:37:57;2.47;;;2.27;;
8247;SDS011;4164;49.844;8.830;2022-09-03T12:40:24;2.70;;;2.50;;
8247;SDS011;4164;49.844;8.830;2022-09-03T12:42:51;2.87;;;2.67;;
8247;SDS011;4164;49.844;8.830;2022-09-03T12:45:21;3.17;;;2.63;;
8247;SDS011;4164;49.844;8.830;2022-09-03T12:47:49;4.87;;;2.90;;
8247;SDS011;4164;49.844;8.830;2022-09-03T12:50:19;2.70;;;2.50;;
8247;SDS011;4164;49.844;8.830;2022-09-03T12:52:54;3.50;;;2.80;;
8247;SDS011;4164;49.844;8.830;2022-09-03T12:58:13;2.67;;;2.47;;
8247;SDS011;4164;49.844;8.830;2022-09-03T13:00:59;2.83;;;2.30;;
8247;SDS011;4164;49.844;8.830;2022-09-03T13:03:47;4.17;;;2.57;;
8247;SDS011;4164;49.844;8.830;2022-09-03T13:06:19;3.37;;;2.60;;
8247;SDS011;4164;49.844;8.830;2022-09-03T13:08:48;3.07;;;2.60;;
8247;SDS011;4164;49.844;8.830;2022-09-03T13:11:18;2.67;;;2.47;;
8247;SDS011;4164;49.844;8.830;2022-09-03T13:16:28;2.90;;;2.40;;
8247;SDS011;4164;49.844;8.830;2022-09-03T13:21:59;2.70;;;2.50;;
8247;SDS011;4164;49.844;8.830;2022-09-03T13:24:38;2.67;;;2.33;;
8247;SDS011;4164;49.844;8.830;2022-09-03T13:35:26;2.50;;;2.30;;
8247;SDS011;4164;49.844;8.830;2022-09-03T13:38:17;2.77;;;2.57;;
8247;SDS011;4164;49.844;8.830;2022-09-03T13:43:28;2.73;;;2.40;;
8247;SDS011;4164;49.844;8.830;2022-09-03T13:46:09;2.63;;;2.27;;
8247;SDS011;4164;49.844;8.830;2022-09-03T13:49:12;5.07;;;2.37;;
8247;SDS011;4164;49.844;8.830;2022-09-03T13:51:59;4.17;;;2.20;;
8247;SDS011;4164;49.844;8.830;2022-09-03T13:54:33;2.80;;;2.60;;
8247;SDS011;4164;49.844;8.830;2022-09-03T13:57:08;2.80;;;2.60;;
8247;SDS011;4164;49.844;8.830;2022-09-03T14:05:40;3.67;;;2.47;;
8247;SDS011;4164;49.844;8.830;2022-09-03T14:08:21;2.50;;;2.30;;
8247;SDS011;4164;49.844;8.830;2022-09-03T14:10:52;2.87;;;2.67;;
8247;SDS011;4164;49.844;8.830;2022-09-03T14:16:06;2.93;;;2.30;;
8247;SDS011;4164;49.844;8.830;2022-09-03T14:18:41;3.43;;;2.20;;
8247;SDS011;4164;49.844;8.830;2022-09-03T14:21:29;2.50;;;2.30;;
8247;SDS011;4164;49.844;8.830;2022-09-03T14:24:03;2.60;;;2.40;;
8247;SDS011;4164;49.844;8.830;2022-09-03T14:27:00;2.50;;;2.30;;
8247;SDS011;4164;49.844;8.830;2022-09-03T14:29:30;2.60;;;2.40;;
8247;SDS011;4164;49.844;8.830;2022-09-03T14:48:05;4.60;;;2.03;;
8247;SDS011;4164;49.844;8.830;2022-09-03T14:56:19;2.13;;;1.93;;
8247;SDS011;4164;49.844;8.830;2022-09-03T14:59:03;2.23;;;2.13;;
8247;SDS011;4164;49.844;8.830;2022-09-03T15:01:41;4.07;;;2.30;;
8247;SDS011;4164;49.844;8.830;2022-09-03T15:04:18;2.70;;;1.97;;
8247;SDS011;4164;49.844;8.830;2022-09-03T15:10:16;2.00;;;1.90;;
8247;SDS011;4164;49.844;8.830;2022-09-03T15:15:58;2.77;;;1.80;;
8247;SDS011;4164;49.844;8.830;2022-09-03T15:19:09;3.13;;;1.80;;
8247;SDS011;4164;49.844;8.830;2022-09-03T15:22:03;3.50;;;2.30;;
8247;SDS011;4164;49.844;8.830;2022-09-03T15:24:49;2.03;;;1.80;;
8247;SDS011;4164;49.844;8.830;2022-09-03T15:30:18;2.80;;;2.17;;
8247;SDS011;4164;49.844;8.830;2022-09-03T15:37:54;3.23;;;2.30;;
8247;SDS011;4164;49.844;8.830;2022-09-03T15:45:56;4.00;;;2.20;;
8247;SDS011;4164;49.844;8.830;2022-09-03T15:48:44;3.57;;;2.30;;
8247;SDS011;4164;49.844;8.830;2022-09-03T15:51:19;2.00;;;1.80;;
8247;SDS011;4164;49.844;8.830;2022-09-03T15:59:27;3.40;;;2.10;;
8247;SDS011;4164;49.844;8.830;2022-09-03T16:03:11;5.37;;;2.23;;
8247;SDS011;4164;49.844;8.830;2022-09-03T16:05:45;2.03;;;1.70;;
8247;SDS011;4164;49.844;8.830;2022-09-03T16:11:29;2.33;;;2.13;;
8247;SDS011;4164;49.844;8.830;2022-09-03T16:17:04;2.97;;;1.77;;
8247;SDS011;4164;49.844;8.830;2022-09-03T16:19:49;2.57;;;2.30;;
8247;SDS011;4164;49.844;8.830;2022-09-03T16:22:22;2.40;;;2.03;;
8247;SDS011;4164;49.844;8.830;2022-09-03T16:24:53;3.77;;;1.83;;
8247;SDS011;4164;49.844;8.830;2022-09-03T16:30:07;4.93;;;3.80;;
8247;SDS011;4164;49.844;8.830;2022-09-03T16:35:18;3.40;;;3.10;;
8247;SDS011;4164;49.844;8.830;2022-09-03T16:37:57;2.57;;;2.33;;
8247;SDS011;4164;49.844;8.830;2022-09-03T16:40:37;3.20;;;2.50;;
8247;SDS011;4164;49.844;8.830;2022-09-03T16:46:15;3.10;;;2.80;;
8247;SDS011;4164;49.844;8.830;2022-09-03T16:54:04;11.13;;;7.10;;
8247;SDS011;4164;49.844;8.830;2022-09-03T16:59:59;7.50;;;4.37;;
8247;SDS011;4164;49.844;8.830;2022-09-03T17:13:10;3.00;;;2.60;;
8247;SDS011;4164;49.844;8.830;2022-09-03T17:16:07;3.77;;;3.47;;
8247;SDS011;4164;49.844;8.830;2022-09-03T17:18:49;6.60;;;3.73;;
8247;SDS011;4164;49.844;8.830;2022-09-03T17:21:38;3.77;;;3.30;;
8247;SDS011;4164;49.844;8.830;2022-09-03T17:32:29;3.00;;;2.73;;
8247;SDS011;4164;49.844;8.830;2022-09-03T17:35:10;2.80;;;2.27;;
8247;SDS011;4164;49.844;8.830;2022-09-03T17:40:44;3.40;;;2.80;;
8247;SDS011;4164;49.844;8.830;2022-09-03T17:46:03;2.43;;;2.00;;
8247;SDS011;4164;49.844;8.830;2022-09-03T17:48:46;2.43;;;2.00;;
8247;SDS011;4164;49.844;8.830;2022-09-03T17:53:48;3.87;;;1.80;;
8247;SDS011;4164;49.844;8.830;2022-09-03T17:56:20;5.27;;;2.27;;
8247;SDS011;4164;49.844;8.830;2022-09-03T17:59:18;2.37;;;2.07;;
8247;SDS011;4164;49.844;8.830;2022-09-03T18:01:52;2.43;;;2.17;;
8247;SDS011;4164;49.844;8.830;2022-09-03T18:04:33;2.50;;;2.30;;
8247;SDS011;4164;49.844;8.830;2022-09-03T18:07:06;2.63;;;2.43;;
8247;SDS011;4164;49.844;8.830;2022-09-03T18:09:58;2.27;;;2.00;;
8247;SDS011;4164;49.844;8.830;2022-09-03T18:13:05;2.20;;;2.00;;
8247;SDS011;4164;49.844;8.830;2022-09-03T18:15:38;2.07;;;1.70;;
8247;SDS011;4164;49.844;8.830;2022-09-03T18:20:52;2.37;;;2.17;;
8247;SDS011;4164;49.844;8.830;2022-09-03T18:26:36;2.87;;;2.33;;
8247;SDS011;4164;49.844;8.830;2022-09-03T18:29:45;3.60;;;2.60;;
8247;SDS011;4164;49.844;8.830;2022-09-03T18:32:36;4.20;;;2.60;;
8247;SDS011;4164;49.844;8.830;2022-09-03T18:35:20;2.60;;;2.40;;
8247;SDS011;4164;49.844;8.830;2022-09-03T18:38:06;3.67;;;2.30;;
8247;SDS011;4164;49.844;8.830;2022-09-03T18:44:04;3.97;;;2.60;;
8247;SDS011;4164;49.844;8.830;2022-09-03T18:50:28;2.87;;;2.30;;
8247;SDS011;4164;49.844;8.830;2022-09-03T18:53:25;2.50;;;2.30;;
8247;SDS011;4164;49.844;8.830;2022-09-03T19:01:55;2.43;;;2.20;;
8247;SDS011;4164;49.844;8.830;2022-09-03T19:10:47;3.60;;;3.30;;
8247;SDS011;4164;49.844;8.830;2022-09-03T19:13:38;5.53;;;3.97;;
8247;SDS011;4164;49.844;8.830;2022-09-03T19:19:39;5.10;;;4.30;;
8247;SDS011;4164;49.844;8.830;2022-09-03T19:22:34;4.47;;;4.07;;
8247;SDS011;4164;49.844;8.830;2022-09-03T19:25:23;4.53;;;4.13;;
8247;SDS011;4164;49.844;8.830;2022-09-03T19:28:17;4.43;;;4.03;;
8247;SDS011;4164;49.844;8.830;2022-09-03T19:31:24;5.00;;;4.50;;
8247;SDS011;4164;49.844;8.830;2022-09-03T19:40:44;9.60;;;7.60;;
8247;SDS011;4164;49.844;8.830;2022-09-03T19:47:02;13.70;;;10.10;;
8247;SDS011;4164;49.844;8.830;2022-09-03T19:50:07;19.23;;;12.67;;
8247;SDS011;4164;49.844;8.830;2022-09-03T19:53:00;13.90;;;9.67;;
8247;SDS011;4164;49.844;8.830;2022-09-03T19:55:51;8.03;;;6.80;;
8247;SDS011;4164;49.844;8.830;2022-09-03T19:58:37;8.60;;;6.47;;
8247;SDS011;4164;49.844;8.830;2022-09-03T20:01:28;7.00;;;5.40;;
8247;SDS011;4164;49.844;8.830;2022-09-03T20:04:16;7.30;;;5.50;;
8247;SDS011;4164;49.844;8.830;2022-09-03T20:07:04;6.43;;;5.73;;
8247;SDS011;4164;49.844;8.830;2022-09-03T20:09:52;6.23;;;5.57;;
8247;SDS011;4164;49.844;8.830;2022-09-03T20:12:41;5.83;;;5.17;;
8247;SDS011;4164;49.844;8.830;2022-09-03T20:15:11;6.50;;;5.40;;
8247;SDS011;4164;49.844;8.830;2022-09-03T20:17:40;5.60;;;5.10;;
8247;SDS011;4164;49.844;8.830;2022-09-03T20:23:00;6.37;;;5.77;;
8247;SDS011;4164;49.844;8.830;2022-09-03T20:48:18;12.73;;;6.90;;
8247;SDS011;4164;49.844;8.830;2022-09-03T20:51:02;8.43;;;7.63;;
8247;SDS011;4164;49.844;8.830;2022-09-03T21:02:00;8.73;;;7.67;;
8247;SDS011;4164;49.844;8.830;2022-09-03T21:11:04;9.00;;;6.90;;
8247;SDS011;4164;49.844;8.830;2022-09-03T21:13:52;8.23;;;7.33;;
8247;SDS011;4164;49.844;8.830;2022-09-03T21:24:50;11.37;;;10.23;;
8247;SDS011;4164;49.844;8.830;2022-09-03T21:27:20;11.60;;;10.27;;
8247;SDS011;4164;49.844;8.830;2022-09-03T21:30:22;9.40;;;8.40;;
8247;SDS011;4164;49.844;8.830;2022-09-03T21:35:24;67.97;;;60.93;;
8247;SDS011;4164;49.844;8.830;2022-09-03T21:37:57;113.37;;;101.53;;